sensor_id;sensor_type;location;lat;lon;timestamp;P1;durP1;ratioP1;P2;durP2;ratioP2
33006;SDS011;19361;51.598;7.650;2024-03-07T00:02:56;48.33;;;29.90;;
33006;SDS011;19361;51.598;7.650;2024-03-07T00:07:56;48.97;;;31.02;;
33006;SDS011;19361;51.598;7.650;2024-03-07T00:12:58;49.03;;;31.25;;
33006;SDS011;19361;51.598;7.650;2024-03-07T00:18:00;50.83;;;30.02;;
33006;SDS011;19361;51.598;7.650;2024-03-07T00:23:01;51.53;;;30.58;;
33006;SDS011;19361;51.598;7.650;2024-03-07T00:28:03;54.30;;;30.27;;
33006;SDS011;19361;51.598;7.650;2024-03-07T00:33:04;46.92;;;29.40;;
33006;SDS011;19361;51.598;7.650;2024-03-07T00:38:04;51.28;;;31.63;;
33006;SDS011;19361;51.598;7.650;2024-03-07T00:43:05;53.33;;;31.40;;
33006;SDS011;19361;51.598;7.650;2024-03-07T00:48:06;49.75;;;31.63;;
33006;SDS011;19361;51.598;7.650;2024-03-07T00:53:07;49.40;;;30.48;;
33006;SDS011;19361;51.598;7.650;2024-03-07T00:58:08;46.55;;;29.70;;
33006;SDS011;19361;51.598;7.650;2024-03-07T01:03:09;49.33;;;30.80;;
33006;SDS011;19361;51.598;7.650;2024-03-07T01:08:13;44.95;;;28.08;;
33006;SDS011;19361;51.598;7.650;2024-03-07T01:13:14;43.80;;;28.95;;
33006;SDS011;19361;51.598;7.650;2024-03-07T01:18:19;42.22;;;28.50;;
33006;SDS011;19361;51.598;7.650;2024-03-07T01:23:19;44.85;;;28.23;;
33006;SDS011;19361;51.598;7.650;2024-03-07T01:28:20;43.45;;;27.02;;
33006;SDS011;19361;51.598;7.650;2024-03-07T01:33:22;39.10;;;26.70;;
33006;SDS011;19361;51.598;7.650;2024-03-07T01:38:23;43.83;;;28.95;;
33006;SDS011;19361;51.598;7.650;2024-03-07T01:43:25;49.72;;;29.27;;
33006;SDS011;19361;51.598;7.650;2024-03-07T01:48:26;42.83;;;27.10;;
33006;SDS011;19361;51.598;7.650;2024-03-07T01:53:28;41.95;;;28.63;;
33006;SDS011;19361;51.598;7.650;2024-03-07T01:58:30;46.83;;;28.27;;
33006;SDS011;19361;51.598;7.650;2024-03-07T02:03:32;46.42;;;28.10;;
33006;SDS011;19361;51.598;7.650;2024-03-07T02:08:33;42.45;;;26.33;;
33006;SDS011;19361;51.598;7.650;2024-03-07T02:13:34;46.58;;;28.60;;
33006;SDS011;19361;51.598;7.650;2024-03-07T02:18:35;44.67;;;29.73;;
33006;SDS011;19361;51.598;7.650;2024-03-07T02:23:38;46.15;;;27.85;;
33006;SDS011;19361;51.598;7.650;2024-03-07T02:28:38;43.40;;;27.65;;
33006;SDS011;19361;51.598;7.650;2024-03-07T02:33:39;37.70;;;25.55;;
33006;SDS011;19361;51.598;7.650;2024-03-07T02:38:41;40.22;;;25.52;;
33006;SDS011;19361;51.598;7.650;2024-03-07T02:43:41;41.20;;;26.80;;
33006;SDS011;19361;51.598;7.650;2024-03-07T02:48:42;38.63;;;26.48;;
33006;SDS011;19361;51.598;7.650;2024-03-07T02:53:43;41.63;;;25.63;;
33006;SDS011;19361;51.598;7.650;2024-03-07T02:58:44;40.08;;;25.38;;
33006;SDS011;19361;51.598;7.650;2024-03-07T03:03:45;38.83;;;25.80;;
33006;SDS011;19361;51.598;7.650;2024-03-07T03:08:46;47.05;;;26.88;;
33006;SDS011;19361;51.598;7.650;2024-03-07T03:13:47;44.40;;;28.65;;
33006;SDS011;19361;51.598;7.650;2024-03-07T03:18:48;40.25;;;26.13;;
33006;SDS011;19361;51.598;7.650;2024-03-07T03:23:49;41.85;;;26.40;;
33006;SDS011;19361;51.598;7.650;2024-03-07T03:28:50;38.33;;;26.38;;
33006;SDS011;19361;51.598;7.650;2024-03-07T03:33:51;37.45;;;25.25;;
33006;SDS011;19361;51.598;7.650;2024-03-07T03:38:52;37.95;;;24.75;;
33006;SDS011;19361;51.598;7.650;2024-03-07T03:43:52;40.33;;;24.77;;
33006;SDS011;19361;51.598;7.650;2024-03-07T03:48:53;38.90;;;24.80;;
33006;SDS011;19361;51.598;7.650;2024-03-07T03:53:54;37.05;;;24.95;;
33006;SDS011;19361;51.598;7.650;2024-03-07T03:58:54;32.83;;;23.90;;
33006;SDS011;19361;51.598;7.650;2024-03-07T04:03:55;37.30;;;25.13;;
33006;SDS011;19361;51.598;7.650;2024-03-07T04:08:56;36.47;;;24.58;;
33006;SDS011;19361;51.598;7.650;2024-03-07T04:13:56;40.03;;;25.85;;
33006;SDS011;19361;51.598;7.650;2024-03-07T04:18:57;36.55;;;25.02;;
33006;SDS011;19361;51.598;7.650;2024-03-07T04:23:58;45.13;;;27.52;;
33006;SDS011;19361;51.598;7.650;2024-03-07T04:28:58;40.35;;;26.83;;
33006;SDS011;19361;51.598;7.650;2024-03-07T04:33:59;39.33;;;27.00;;
33006;SDS011;19361;51.598;7.650;2024-03-07T04:39:00;35.45;;;24.65;;
33006;SDS011;19361;51.598;7.650;2024-03-07T04:44:04;40.15;;;26.08;;
33006;SDS011;19361;51.598;7.650;2024-03-07T04:49:04;39.67;;;26.70;;
33006;SDS011;19361;51.598;7.650;2024-03-07T04:54:05;41.88;;;25.67;;
33006;SDS011;19361;51.598;7.650;2024-03-07T04:59:06;39.33;;;26.48;;
33006;SDS011;19361;51.598;7.650;2024-03-07T05:04:07;36.95;;;25.15;;
33006;SDS011;19361;51.598;7.650;2024-03-07T05:09:08;38.58;;;25.80;;
33006;SDS011;19361;51.598;7.650;2024-03-07T05:14:21;38.60;;;24.67;;
33006;SDS011;19361;51.598;7.650;2024-03-07T05:19:22;35.38;;;24.50;;
33006;SDS011;19361;51.598;7.650;2024-03-07T05:24:22;39.92;;;25.77;;
33006;SDS011;19361;51.598;7.650;2024-03-07T05:29:23;37.10;;;26.40;;
33006;SDS011;19361;51.598;7.650;2024-03-07T05:34:24;38.85;;;25.05;;
33006;SDS011;19361;51.598;7.650;2024-03-07T05:39:27;41.72;;;25.85;;
33006;SDS011;19361;51.598;7.650;2024-03-07T05:44:29;39.63;;;25.88;;
33006;SDS011;19361;51.598;7.650;2024-03-07T05:49:29;40.08;;;27.52;;
33006;SDS011;19361;51.598;7.650;2024-03-07T05:54:31;39.30;;;26.95;;
33006;SDS011;19361;51.598;7.650;2024-03-07T05:59:32;38.33;;;26.73;;
33006;SDS011;19361;51.598;7.650;2024-03-07T06:04:33;37.78;;;27.00;;
33006;SDS011;19361;51.598;7.650;2024-03-07T06:09:34;36.58;;;25.80;;
33006;SDS011;19361;51.598;7.650;2024-03-07T06:14:34;36.72;;;24.98;;
33006;SDS011;19361;51.598;7.650;2024-03-07T06:19:35;35.22;;;25.35;;
33006;SDS011;19361;51.598;7.650;2024-03-07T06:24:36;35.75;;;25.33;;
33006;SDS011;19361;51.598;7.650;2024-03-07T06:29:37;38.63;;;25.67;;
33006;SDS011;19361;51.598;7.650;2024-03-07T06:34:37;36.42;;;25.15;;
33006;SDS011;19361;51.598;7.650;2024-03-07T06:39:38;40.63;;;27.48;;
33006;SDS011;19361;51.598;7.650;2024-03-07T06:44:39;36.05;;;26.55;;
33006;SDS011;19361;51.598;7.650;2024-03-07T06:49:39;36.83;;;26.42;;
33006;SDS011;19361;51.598;7.650;2024-03-07T06:54:40;36.33;;;26.35;;
33006;SDS011;19361;51.598;7.650;2024-03-07T06:59:41;38.47;;;25.75;;
33006;SDS011;19361;51.598;7.650;2024-03-07T07:04:42;36.17;;;25.42;;
33006;SDS011;19361;51.598;7.650;2024-03-07T07:09:43;36.17;;;25.40;;
33006;SDS011;19361;51.598;7.650;2024-03-07T07:14:43;34.40;;;24.75;;
33006;SDS011;19361;51.598;7.650;2024-03-07T07:19:44;35.08;;;23.65;;
33006;SDS011;19361;51.598;7.650;2024-03-07T07:24:45;35.50;;;23.33;;
33006;SDS011;19361;51.598;7.650;2024-03-07T07:29:45;36.80;;;25.95;;
33006;SDS011;19361;51.598;7.650;2024-03-07T07:34:48;34.35;;;23.85;;
33006;SDS011;19361;51.598;7.650;2024-03-07T07:39:49;34.63;;;25.88;;
33006;SDS011;19361;51.598;7.650;2024-03-07T07:44:49;39.22;;;26.13;;
33006;SDS011;19361;51.598;7.650;2024-03-07T07:49:50;34.38;;;25.92;;
33006;SDS011;19361;51.598;7.650;2024-03-07T07:54:51;37.25;;;25.83;;
33006;SDS011;19361;51.598;7.650;2024-03-07T07:59:51;36.08;;;24.73;;
33006;SDS011;19361;51.598;7.650;2024-03-07T08:04:52;34.38;;;26.08;;
33006;SDS011;19361;51.598;7.650;2024-03-07T08:09:53;33.63;;;24.27;;
33006;SDS011;19361;51.598;7.650;2024-03-07T08:14:54;37.30;;;26.23;;
33006;SDS011;19361;51.598;7.650;2024-03-07T08:19:55;33.72;;;24.98;;
33006;SDS011;19361;51.598;7.650;2024-03-07T08:24:55;34.20;;;25.27;;
33006;SDS011;19361;51.598;7.650;2024-03-07T08:29:57;31.90;;;23.42;;
33006;SDS011;19361;51.598;7.650;2024-03-07T08:34:59;34.65;;;24.63;;
33006;SDS011;19361;51.598;7.650;2024-03-07T08:40:02;35.42;;;24.08;;
33006;SDS011;19361;51.598;7.650;2024-03-07T08:45:07;32.83;;;23.77;;
33006;SDS011;19361;51.598;7.650;2024-03-07T08:50:10;31.92;;;24.10;;
33006;SDS011;19361;51.598;7.650;2024-03-07T08:55:13;35.50;;;24.38;;
33006;SDS011;19361;51.598;7.650;2024-03-07T09:00:22;32.50;;;24.42;;
33006;SDS011;19361;51.598;7.650;2024-03-07T09:05:26;34.85;;;23.10;;
33006;SDS011;19361;51.598;7.650;2024-03-07T09:10:27;32.97;;;23.10;;
33006;SDS011;19361;51.598;7.650;2024-03-07T09:15:29;35.88;;;24.38;;
33006;SDS011;19361;51.598;7.650;2024-03-07T09:20:31;34.80;;;24.05;;
33006;SDS011;19361;51.598;7.650;2024-03-07T09:25:32;35.65;;;24.60;;
33006;SDS011;19361;51.598;7.650;2024-03-07T09:30:33;33.65;;;24.30;;
33006;SDS011;19361;51.598;7.650;2024-03-07T09:35:34;35.28;;;24.65;;
33006;SDS011;19361;51.598;7.650;2024-03-07T09:40:35;36.63;;;25.05;;
33006;SDS011;19361;51.598;7.650;2024-03-07T09:45:36;34.38;;;24.58;;
33006;SDS011;19361;51.598;7.650;2024-03-07T09:50:38;34.40;;;24.00;;
33006;SDS011;19361;51.598;7.650;2024-03-07T09:55:41;32.97;;;23.60;;
33006;SDS011;19361;51.598;7.650;2024-03-07T10:00:42;32.63;;;23.20;;
33006;SDS011;19361;51.598;7.650;2024-03-07T10:05:43;30.52;;;23.48;;
33006;SDS011;19361;51.598;7.650;2024-03-07T10:10:44;31.85;;;24.40;;
33006;SDS011;19361;51.598;7.650;2024-03-07T10:15:46;33.47;;;24.42;;
33006;SDS011;19361;51.598;7.650;2024-03-07T10:20:47;34.00;;;25.45;;
33006;SDS011;19361;51.598;7.650;2024-03-07T10:25:48;31.38;;;24.02;;
33006;SDS011;19361;51.598;7.650;2024-03-07T10:30:54;35.00;;;24.52;;
33006;SDS011;19361;51.598;7.650;2024-03-07T10:35:55;35.30;;;24.58;;
33006;SDS011;19361;51.598;7.650;2024-03-07T10:40:56;35.50;;;24.63;;
33006;SDS011;19361;51.598;7.650;2024-03-07T10:45:56;30.63;;;23.13;;
33006;SDS011;19361;51.598;7.650;2024-03-07T10:51:37;31.95;;;22.65;;
33006;SDS011;19361;51.598;7.650;2024-03-07T10:56:47;30.08;;;23.00;;
33006;SDS011;19361;51.598;7.650;2024-03-07T11:02:15;36.58;;;22.48;;
33006;SDS011;19361;51.598;7.650;2024-03-07T11:07:27;32.03;;;21.98;;
33006;SDS011;19361;51.598;7.650;2024-03-07T11:12:28;30.73;;;22.52;;
33006;SDS011;19361;51.598;7.650;2024-03-07T11:17:30;30.90;;;21.27;;
33006;SDS011;19361;51.598;7.650;2024-03-07T11:22:33;28.02;;;21.00;;
33006;SDS011;19361;51.598;7.650;2024-03-07T11:27:37;25.42;;;19.73;;
33006;SDS011;19361;51.598;7.650;2024-03-07T11:32:39;27.40;;;20.50;;
33006;SDS011;19361;51.598;7.650;2024-03-07T11:37:41;26.52;;;20.05;;
33006;SDS011;19361;51.598;7.650;2024-03-07T11:42:48;26.27;;;19.37;;
33006;SDS011;19361;51.598;7.650;2024-03-07T11:47:49;27.10;;;19.75;;
33006;SDS011;19361;51.598;7.650;2024-03-07T11:53:12;25.70;;;19.10;;
33006;SDS011;19361;51.598;7.650;2024-03-07T11:58:19;22.08;;;17.52;;
33006;SDS011;19361;51.598;7.650;2024-03-07T12:03:21;23.55;;;17.48;;
33006;SDS011;19361;51.598;7.650;2024-03-07T12:08:23;23.25;;;16.17;;
33006;SDS011;19361;51.598;7.650;2024-03-07T12:13:24;19.75;;;15.18;;
33006;SDS011;19361;51.598;7.650;2024-03-07T12:18:24;20.20;;;16.58;;
33006;SDS011;19361;51.598;7.650;2024-03-07T12:23:26;21.35;;;16.83;;
33006;SDS011;19361;51.598;7.650;2024-03-07T12:28:27;22.63;;;17.25;;
33006;SDS011;19361;51.598;7.650;2024-03-07T12:33:33;22.55;;;17.00;;
33006;SDS011;19361;51.598;7.650;2024-03-07T12:38:38;23.88;;;16.80;;
33006;SDS011;19361;51.598;7.650;2024-03-07T12:43:41;21.05;;;16.42;;
33006;SDS011;19361;51.598;7.650;2024-03-07T12:48:42;21.33;;;16.00;;
33006;SDS011;19361;51.598;7.650;2024-03-07T12:53:44;18.02;;;13.32;;
33006;SDS011;19361;51.598;7.650;2024-03-07T12:58:46;17.45;;;13.35;;
33006;SDS011;19361;51.598;7.650;2024-03-07T13:03:49;17.27;;;13.30;;
33006;SDS011;19361;51.598;7.650;2024-03-07T13:08:50;17.95;;;14.13;;
33006;SDS011;19361;51.598;7.650;2024-03-07T13:13:50;17.63;;;13.18;;
33006;SDS011;19361;51.598;7.650;2024-03-07T13:18:55;21.20;;;14.32;;
33006;SDS011;19361;51.598;7.650;2024-03-07T13:23:56;22.30;;;15.02;;
33006;SDS011;19361;51.598;7.650;2024-03-07T13:28:58;22.77;;;14.98;;
33006;SDS011;19361;51.598;7.650;2024-03-07T13:34:01;23.30;;;15.85;;
33006;SDS011;19361;51.598;7.650;2024-03-07T13:39:02;21.75;;;15.20;;
33006;SDS011;19361;51.598;7.650;2024-03-07T13:44:03;22.60;;;15.20;;
33006;SDS011;19361;51.598;7.650;2024-03-07T13:49:04;23.60;;;16.77;;
33006;SDS011;19361;51.598;7.650;2024-03-07T13:54:12;25.15;;;16.67;;
33006;SDS011;19361;51.598;7.650;2024-03-07T13:59:49;23.92;;;16.50;;
33006;SDS011;19361;51.598;7.650;2024-03-07T14:05:13;25.13;;;17.10;;
33006;SDS011;19361;51.598;7.650;2024-03-07T14:11:05;21.38;;;15.30;;
33006;SDS011;19361;51.598;7.650;2024-03-07T14:27:15;23.52;;;16.67;;
33006;SDS011;19361;51.598;7.650;2024-03-07T14:32:38;26.60;;;17.17;;
33006;SDS011;19361;51.598;7.650;2024-03-07T14:37:46;25.08;;;16.95;;
33006;SDS011;19361;51.598;7.650;2024-03-07T14:42:55;26.17;;;16.75;;
33006;SDS011;19361;51.598;7.650;2024-03-07T14:48:00;27.63;;;17.23;;
33006;SDS011;19361;51.598;7.650;2024-03-07T14:53:01;24.73;;;16.15;;
33006;SDS011;19361;51.598;7.650;2024-03-07T14:58:04;24.95;;;15.85;;
33006;SDS011;19361;51.598;7.650;2024-03-07T15:03:05;27.38;;;16.85;;
33006;SDS011;19361;51.598;7.650;2024-03-07T15:08:09;29.05;;;17.92;;
33006;SDS011;19361;51.598;7.650;2024-03-07T15:13:10;28.77;;;17.85;;
33006;SDS011;19361;51.598;7.650;2024-03-07T15:18:12;28.48;;;18.00;;
33006;SDS011;19361;51.598;7.650;2024-03-07T15:23:13;31.55;;;17.88;;
33006;SDS011;19361;51.598;7.650;2024-03-07T15:28:13;28.92;;;17.02;;
33006;SDS011;19361;51.598;7.650;2024-03-07T15:33:14;28.55;;;18.10;;
33006;SDS011;19361;51.598;7.650;2024-03-07T15:38:15;27.88;;;16.63;;
33006;SDS011;19361;51.598;7.650;2024-03-07T15:43:17;30.60;;;18.20;;
33006;SDS011;19361;51.598;7.650;2024-03-07T15:48:18;31.17;;;19.17;;
33006;SDS011;19361;51.598;7.650;2024-03-07T15:53:22;35.28;;;19.20;;
33006;SDS011;19361;51.598;7.650;2024-03-07T15:58:22;35.17;;;18.35;;
33006;SDS011;19361;51.598;7.650;2024-03-07T16:03:23;35.60;;;18.35;;
33006;SDS011;19361;51.598;7.650;2024-03-07T16:08:25;32.10;;;18.73;;
33006;SDS011;19361;51.598;7.650;2024-03-07T16:13:25;32.97;;;19.35;;
33006;SDS011;19361;51.598;7.650;2024-03-07T16:18:27;31.25;;;19.38;;
33006;SDS011;19361;51.598;7.650;2024-03-07T16:23:28;28.23;;;18.50;;
33006;SDS011;19361;51.598;7.650;2024-03-07T16:28:28;38.70;;;20.42;;
33006;SDS011;19361;51.598;7.650;2024-03-07T16:33:29;34.17;;;20.08;;
33006;SDS011;19361;51.598;7.650;2024-03-07T16:38:31;37.35;;;19.08;;
33006;SDS011;19361;51.598;7.650;2024-03-07T16:43:34;34.80;;;19.70;;
33006;SDS011;19361;51.598;7.650;2024-03-07T16:48:37;38.60;;;20.33;;
33006;SDS011;19361;51.598;7.650;2024-03-07T16:53:37;33.85;;;19.27;;
33006;SDS011;19361;51.598;7.650;2024-03-07T16:58:40;32.03;;;18.50;;
33006;SDS011;19361;51.598;7.650;2024-03-07T17:03:41;37.35;;;18.83;;
33006;SDS011;19361;51.598;7.650;2024-03-07T17:08:41;41.17;;;21.15;;
33006;SDS011;19361;51.598;7.650;2024-03-07T17:13:42;42.90;;;21.85;;
33006;SDS011;19361;51.598;7.650;2024-03-07T17:18:43;42.30;;;22.60;;
33006;SDS011;19361;51.598;7.650;2024-03-07T17:23:44;45.72;;;22.83;;
33006;SDS011;19361;51.598;7.650;2024-03-07T17:28:44;44.75;;;24.15;;
33006;SDS011;19361;51.598;7.650;2024-03-07T17:33:45;49.17;;;23.50;;
33006;SDS011;19361;51.598;7.650;2024-03-07T17:38:46;47.28;;;23.52;;
33006;SDS011;19361;51.598;7.650;2024-03-07T17:43:46;44.20;;;23.35;;
33006;SDS011;19361;51.598;7.650;2024-03-07T17:48:47;43.55;;;22.73;;
33006;SDS011;19361;51.598;7.650;2024-03-07T17:53:48;45.90;;;23.60;;
33006;SDS011;19361;51.598;7.650;2024-03-07T17:58:49;42.88;;;22.17;;
33006;SDS011;19361;51.598;7.650;2024-03-07T18:03:50;45.58;;;22.45;;
33006;SDS011;19361;51.598;7.650;2024-03-07T18:08:52;40.67;;;23.40;;
33006;SDS011;19361;51.598;7.650;2024-03-07T18:13:53;42.15;;;22.10;;
33006;SDS011;19361;51.598;7.650;2024-03-07T18:18:54;43.38;;;23.58;;
33006;SDS011;19361;51.598;7.650;2024-03-07T18:23:56;39.65;;;22.13;;
33006;SDS011;19361;51.598;7.650;2024-03-07T18:28:56;42.63;;;23.30;;
33006;SDS011;19361;51.598;7.650;2024-03-07T18:33:57;45.55;;;22.08;;
33006;SDS011;19361;51.598;7.650;2024-03-07T18:38:58;37.33;;;21.65;;
33006;SDS011;19361;51.598;7.650;2024-03-07T18:44:01;32.00;;;19.73;;
33006;SDS011;19361;51.598;7.650;2024-03-07T18:49:01;32.08;;;19.88;;
33006;SDS011;19361;51.598;7.650;2024-03-07T18:54:08;33.03;;;19.42;;
33006;SDS011;19361;51.598;7.650;2024-03-07T18:59:09;33.50;;;18.60;;
33006;SDS011;19361;51.598;7.650;2024-03-07T19:04:09;36.97;;;20.13;;
33006;SDS011;19361;51.598;7.650;2024-03-07T19:09:10;31.13;;;18.80;;
33006;SDS011;19361;51.598;7.650;2024-03-07T19:14:14;35.92;;;20.10;;
33006;SDS011;19361;51.598;7.650;2024-03-07T19:19:15;28.48;;;18.50;;
33006;SDS011;19361;51.598;7.650;2024-03-07T19:24:17;31.85;;;17.73;;
33006;SDS011;19361;51.598;7.650;2024-03-07T19:29:19;29.50;;;17.65;;
33006;SDS011;19361;51.598;7.650;2024-03-07T19:34:20;27.35;;;18.40;;
33006;SDS011;19361;51.598;7.650;2024-03-07T19:39:21;28.90;;;18.17;;
33006;SDS011;19361;51.598;7.650;2024-03-07T19:44:22;27.83;;;16.58;;
33006;SDS011;19361;51.598;7.650;2024-03-07T19:49:22;29.08;;;18.42;;
33006;SDS011;19361;51.598;7.650;2024-03-07T19:54:23;28.77;;;18.40;;
33006;SDS011;19361;51.598;7.650;2024-03-07T19:59:24;30.52;;;17.95;;
33006;SDS011;19361;51.598;7.650;2024-03-07T20:04:25;24.65;;;16.40;;
33006;SDS011;19361;51.598;7.650;2024-03-07T20:09:25;29.10;;;17.63;;
33006;SDS011;19361;51.598;7.650;2024-03-07T20:14:26;29.95;;;18.05;;
33006;SDS011;19361;51.598;7.650;2024-03-07T20:19:27;28.02;;;17.15;;
33006;SDS011;19361;51.598;7.650;2024-03-07T20:24:28;25.75;;;17.20;;
33006;SDS011;19361;51.598;7.650;2024-03-07T20:29:29;29.45;;;17.85;;
33006;SDS011;19361;51.598;7.650;2024-03-07T20:34:30;28.17;;;16.88;;
33006;SDS011;19361;51.598;7.650;2024-03-07T20:39:31;25.85;;;16.52;;
33006;SDS011;19361;51.598;7.650;2024-03-07T20:44:34;25.00;;;16.98;;
33006;SDS011;19361;51.598;7.650;2024-03-07T20:49:34;28.63;;;17.83;;
33006;SDS011;19361;51.598;7.650;2024-03-07T20:54:36;23.92;;;16.10;;
33006;SDS011;19361;51.598;7.650;2024-03-07T20:59:37;26.02;;;16.60;;
33006;SDS011;19361;51.598;7.650;2024-03-07T21:04:38;24.60;;;16.67;;
33006;SDS011;19361;51.598;7.650;2024-03-07T21:09:39;26.73;;;17.80;;
33006;SDS011;19361;51.598;7.650;2024-03-07T21:14:40;24.90;;;15.77;;
33006;SDS011;19361;51.598;7.650;2024-03-07T21:19:43;23.25;;;16.65;;
33006;SDS011;19361;51.598;7.650;2024-03-07T21:24:44;21.95;;;15.98;;
33006;SDS011;19361;51.598;7.650;2024-03-07T21:29:44;25.55;;;16.98;;
33006;SDS011;19361;51.598;7.650;2024-03-07T21:34:45;23.73;;;16.50;;
33006;SDS011;19361;51.598;7.650;2024-03-07T21:39:46;24.58;;;16.85;;
33006;SDS011;19361;51.598;7.650;2024-03-07T21:44:48;27.98;;;17.20;;
33006;SDS011;19361;51.598;7.650;2024-03-07T21:49:50;21.92;;;16.80;;
33006;SDS011;19361;51.598;7.650;2024-03-07T21:54:51;27.25;;;16.90;;
33006;SDS011;19361;51.598;7.650;2024-03-07T21:59:52;26.42;;;18.00;;
33006;SDS011;19361;51.598;7.650;2024-03-07T22:04:53;25.73;;;17.17;;
33006;SDS011;19361;51.598;7.650;2024-03-07T22:09:57;25.52;;;17.70;;
33006;SDS011;19361;51.598;7.650;2024-03-07T22:14:59;24.30;;;17.92;;
33006;SDS011;19361;51.598;7.650;2024-03-07T22:20:01;25.35;;;17.65;;
33006;SDS011;19361;51.598;7.650;2024-03-07T22:25:04;23.10;;;16.63;;
33006;SDS011;19361;51.598;7.650;2024-03-07T22:30:10;23.30;;;17.50;;
33006;SDS011;19361;51.598;7.650;2024-03-07T22:35:13;26.05;;;17.67;;
33006;SDS011;19361;51.598;7.650;2024-03-07T22:40:14;26.63;;;18.83;;
33006;SDS011;19361;51.598;7.650;2024-03-07T22:45:16;25.90;;;17.98;;
33006;SDS011;19361;51.598;7.650;2024-03-07T22:50:17;24.25;;;17.48;;
33006;SDS011;19361;51.598;7.650;2024-03-07T22:55:19;29.20;;;19.45;;
33006;SDS011;19361;51.598;7.650;2024-03-07T23:00:22;31.38;;;20.08;;
33006;SDS011;19361;51.598;7.650;2024-03-07T23:05:26;28.13;;;19.20;;
33006;SDS011;19361;51.598;7.650;2024-03-07T23:10:27;28.92;;;20.63;;
33006;SDS011;19361;51.598;7.650;2024-03-07T23:15:27;27.08;;;20.75;;
33006;SDS011;19361;51.598;7.650;2024-03-07T23:20:28;30.48;;;21.98;;
33006;SDS011;19361;51.598;7.650;2024-03-07T23:25:29;32.35;;;21.98;;
33006;SDS011;19361;51.598;7.650;2024-03-07T23:30:29;30.40;;;20.65;;
33006;SDS011;19361;51.598;7.650;2024-03-07T23:35:30;31.92;;;22.27;;
33006;SDS011;19361;51.598;7.650;2024-03-07T23:40:31;30.67;;;22.40;;
33006;SDS011;19361;51.598;7.650;2024-03-07T23:45:32;31.33;;;22.80;;
33006;SDS011;19361;51.598;7.650;2024-03-07T23:50:33;32.10;;;22.15;;
33006;SDS011;19361;51.598;7.650;2024-03-07T23:55:34;27.83;;;20.90;;
